Terminal Aerodrome Forecast
Issued by NWS Louisville, KY

Home | Current Version | Previous Version | Text Only | Print | Product List | Glossary On
Versions: 1 2 3 4 5 6 7 8 9 10 11 12 13 14 15 16 17 18
000
FTUS43 KLMK 072300
TAFSDF
TAF
KSDF 072329Z 0800/0906 22012KT P6SM SCT060 BKN150
     FM080700 21011KT P6SM VCSH BKN060
     FM081300 20012G22KT P6SM VCSH SCT040 BKN200
     FM081700 20012KT 6SM -SHRA BKN040 PROB30 0818/0823 VRB20G40KT
      3SM -TSRA BKN040CB
     FM090000 27008KT P6SM SCT080 BKN250=

USA.gov is the U.S. government's official web portal to all federal, state and local government web resources and services.